VOHY/HYD METAR and TAF weather

Enter ICAO airport designator
Station Type Date Time Source
VOHY METAR 2022/11/26 08:30 UTC NOAA

VOHY 260830Z VRB03KT 6000 FEW020 29/10 Q1013 NOSIG


Station Type Date Time Source
VOHY Decoded METAR 2022/11/26 08:30 UTC NOAA

Hyderabad Airport, India (VOHY) 17-27N 078-28E 545M
Nov 26, 2022 - 03:30 AM EST / 2022.11.26 0830 UTC
Wind: Variable at 3 MPH (3 KT):0
Visibility: 3 mile(s):0
Sky conditions: mostly clear
Temperature: 84 F (29 C)
Dew Point: 50 F (10 C)
Relative Humidity: 30%
Pressure (altimeter): 29.91 in. Hg (1013 hPa)
ob: VOHY 260830Z VRB03KT 6000 FEW020 29/10 Q1013 NOSIG
cycle: 8

Station Type Date Time Source
VOHY TAF 2022/10/12 00:00 UTC NOAA

VOHY 122300Z 1300/1309 14007KT 4000 HZ SCT015 BKN100
TEMPO 1300/1303 VRB05KT 3000 .RA BR SCT010 FEW030TCU BKN080
BECMG 1305/1307 11008KT 6000 SCT015 SCT025 BKN100

Example: see airport list